Bonanza, Idaho
Current Conditions -  °F | °C
As of 6:55 AM on Monday 20 Oct 2014 (Local Time) from KLLJ Reporting Station
Clear Clear  
Wind Chill: 34°   Ceiling: Unl
Heat Index: 34°   Visibility: 10mi
Dew Point: 26°   Wind: 0mph
Humidity: 73%   Direction: NA
Pressure: 30.04"   Gusts: NA
Location:  44.3379°N, 114.824°W
Report Text: KLLJ 201255Z AUTO 00000KT 10SM CLR 01/M03 A3004 RMK AO2 SLP161 T00111033
Loading
Personal Weather Stations






























Interactive Weather Map
Tropical Storm Tracking
New forecast layout! Learn more

10-Day Weather Forecast

Advertisements
Track Severe Weather on mobile